Time;durP1;ratioP1;P1;durP2;ratioP2;P2;SDS_P1;SDS_P2;PMS_P1;PMS_P2;Temp;Humidity;BMP_temperature;BMP_pressure;BME280_temperature;BME280_humidity;BME280_pressure;Samples;Min_cycle;Max_cycle;Signal;HPM_P1;HPM_P2
2022/11/24 00:00:13;;;;;;;;;;;;;;;12.43;76.06;99417.69;7391503;19;19927;-86
2022/11/24 00:02:40;;;;;;;;;;;;;;;12.43;75.76;99426.41;7392182;19;19919;-86
2022/11/24 00:05:07;;;;;;;;;;;;;;;12.42;76.10;99429.25;7393130;19;19919;-86
2022/11/24 00:07:34;;;;;;;;;;;;;;;12.40;76.64;99434.72;7390553;19;19911;-86
2022/11/24 00:10:02;;;;;;;;;;;;;;;12.37;77.06;99429.84;7389872;19;20329;-86
2022/11/24 00:12:29;;;;;;;;;;;;;;;12.33;77.10;99443.63;7390801;19;19926;-86
2022/11/24 00:14:56;;;;;;;;;;;;;;;12.32;77.67;99450.72;7391594;19;19931;-86
2022/11/24 00:17:23;;;;;;;;;;;;;;;12.31;78.88;99443.81;7392387;19;19926;-86
2022/11/24 00:19:50;;;;;;;;;;;;;;;12.28;77.94;99431.03;7385357;19;19926;-85
2022/11/24 00:22:17;;;;;;;;;;;;;;;12.27;78.05;99444.41;7385224;19;19926;-85
2022/11/24 00:24:44;;;;;;;;;;;;;;;12.25;78.12;99446.44;7383753;19;19945;-86
2022/11/24 00:27:11;;;;;;;;;;;;;;;12.24;78.65;99466.72;7386062;19;19921;-87
2022/11/24 00:29:38;;;;;;;;;;;;;;;12.24;78.74;99465.91;7386479;19;20507;-85
2022/11/24 00:32:05;;;;;;;;;;;;;;;12.25;78.18;99478.06;7388344;19;19921;-87
2022/11/24 00:34:32;;;;;;;;;;;;;;;12.25;78.68;99497.34;7389034;19;20624;-87
2022/11/24 00:37:00;;;;;;;;;;;;;;;12.29;78.87;99516.25;7389792;19;19933;-86
2022/11/24 00:39:27;;;;;;;;;;;;;;;12.28;79.42;99518.06;7388755;19;19919;-86
2022/11/24 00:41:54;;;;;;;;;;;;;;;12.23;79.70;99528.41;7387080;19;20281;-86
2022/11/24 00:44:21;;;;;;;;;;;;;;;12.16;78.96;99540.72;7391941;19;19919;-86
2022/11/24 00:46:48;;;;;;;;;;;;;;;12.10;79.01;99536.22;7388795;19;19943;-86
2022/11/24 00:49:16;;;;;;;;;;;;;;;12.04;79.01;99533.56;7389384;19;19919;-86
2022/11/24 00:51:43;;;;;;;;;;;;;;;11.95;78.55;99544.25;7387003;19;20362;-86
2022/11/24 00:54:10;;;;;;;;;;;;;;;11.86;77.61;99548.06;7387876;19;20342;-87
2022/11/24 00:56:40;;;;;;;;;;;;;;;11.81;79.19;99547.81;7389327;19;19915;-87
2022/11/24 00:59:07;;;;;;;;;;;;;;;11.73;78.32;99550.59;7391522;19;19959;-87
2022/11/24 01:01:37;;;;;;;;;;;;;;;11.68;78.63;99557.44;7390891;19;19943;-86
2022/11/24 01:04:05;;;;;;;;;;;;;;;11.64;78.32;99572.78;7387924;19;19986;-87
2022/11/24 01:06:34;;;;;;;;;;;;;;;11.56;78.32;99570.28;7392473;19;19918;-87
2022/11/24 01:09:01;;;;;;;;;;;;;;;11.52;78.29;99582.22;7390877;19;19935;-85
2022/11/24 01:14:04;;;;;;;;;;;;;;;11.49;77.77;99596.56;7392183;19;20012;-87
2022/11/24 01:16:34;;;;;;;;;;;;;;;11.47;77.89;99600.41;7396112;19;19926;-86
2022/11/24 01:19:02;;;;;;;;;;;;;;;11.38;76.82;99601.53;7394010;19;19991;-86
2022/11/24 01:21:29;;;;;;;;;;;;;;;11.35;77.03;99615.91;7394824;19;19915;-86
2022/11/24 01:23:56;;;;;;;;;;;;;;;11.34;77.27;99603.72;7392935;19;19927;-86
2022/11/24 01:26:23;;;;;;;;;;;;;;;11.26;76.60;99611.75;7390904;19;19923;-85
2022/11/24 01:28:52;;;;;;;;;;;;;;;11.20;76.69;99614.31;7391956;19;19922;-86
2022/11/24 01:31:19;;;;;;;;;;;;;;;11.17;77.25;99617.34;7394328;19;19915;-84
2022/11/24 01:33:46;;;;;;;;;;;;;;;11.15;77.69;99628.03;7391208;19;19954;-87
2022/11/24 01:36:13;;;;;;;;;;;;;;;11.12;77.45;99641.59;7391529;19;20318;-85
2022/11/24 01:38:40;;;;;;;;;;;;;;;11.07;78.10;99634.22;7390249;19;19926;-86
2022/11/24 01:41:10;;;;;;;;;;;;;;;11.05;78.17;99646.78;7390093;19;19921;-87
2022/11/24 01:43:41;;;;;;;;;;;;;;;11.05;78.28;99641.50;7390418;19;20577;-86
2022/11/24 01:46:11;;;;;;;;;;;;;;;11.05;78.61;99649.41;7388920;19;19927;-86
2022/11/24 01:48:42;;;;;;;;;;;;;;;10.99;78.24;99650.13;7386671;19;19919;-87
2022/11/24 01:51:12;;;;;;;;;;;;;;;10.95;78.71;99651.50;7387700;19;19918;-85
2022/11/24 01:53:43;;;;;;;;;;;;;;;10.94;78.68;99664.84;7385970;19;19947;-87
2022/11/24 01:56:11;;;;;;;;;;;;;;;10.92;79.43;99669.50;7383742;19;20265;-86
2022/11/24 01:58:49;;;;;;;;;;;;;;;10.93;79.17;99682.44;7387396;19;20033;-85
2022/11/24 02:01:16;;;;;;;;;;;;;;;10.85;78.67;99692.25;7392833;19;20393;-85
2022/11/24 02:04:22;;;;;;;;;;;;;;;10.84;79.36;99688.81;7388237;19;19936;-86
2022/11/24 02:06:51;;;;;;;;;;;;;;;10.84;79.81;99691.44;7391269;19;19919;-86
2022/11/24 02:09:18;;;;;;;;;;;;;;;10.80;79.35;99692.00;7388299;19;19918;-86
2022/11/24 02:11:46;;;;;;;;;;;;;;;10.75;79.81;99692.53;7387318;19;19923;-86
2022/11/24 02:14:14;;;;;;;;;;;;;;;10.73;80.05;99691.91;7385712;19;19923;-86
2022/11/24 02:16:47;;;;;;;;;;;;;;;10.73;80.85;99702.41;7386081;19;19933;-86
2022/11/24 02:19:21;;;;;;;;;;;;;;;10.71;80.70;99718.41;7198422;19;3659048;-84
2022/11/24 02:21:50;;;;;;;;;;;;;;;10.71;81.36;99710.50;7388288;19;19915;-86
2022/11/24 02:24:23;;;;;;;;;;;;;;;10.72;81.18;99711.31;7390744;19;19962;-85
2022/11/24 02:26:51;;;;;;;;;;;;;;;10.73;80.46;99720.84;7390600;19;19946;-86
2022/11/24 02:29:19;;;;;;;;;;;;;;;10.71;81.07;99734.19;7390413;19;20297;-86
2022/11/24 02:31:49;;;;;;;;;;;;;;;10.70;81.44;99722.03;7394234;19;19922;-85
2022/11/24 02:34:16;;;;;;;;;;;;;;;10.67;81.75;99732.91;7393460;19;21580;-85
2022/11/24 02:36:43;;;;;;;;;;;;;;;10.68;82.02;99742.44;7393902;19;20297;-87
2022/11/24 02:39:11;;;;;;;;;;;;;;;10.67;80.87;99758.38;7382296;19;19944;-86
2022/11/24 02:41:42;;;;;;;;;;;;;;;10.66;80.63;99759.41;7391004;19;19933;-86
2022/11/24 02:44:13;;;;;;;;;;;;;;;10.65;80.71;99770.91;7392338;19;19937;-86
2022/11/24 02:46:40;;;;;;;;;;;;;;;10.68;81.72;99781.88;7394597;19;19930;-85
2022/11/24 02:49:07;;;;;;;;;;;;;;;10.70;81.00;99790.44;7387935;19;19914;-86
2022/11/24 02:51:34;;;;;;;;;;;;;;;10.71;81.66;99786.00;7391294;19;19949;-85
2022/11/24 03:03:50;;;;;;;;;;;;;;;10.68;79.91;99802.94;7397272;19;20411;-86
2022/11/24 03:06:22;;;;;;;;;;;;;;;10.67;80.38;99798.66;7395108;19;19947;-85
2022/11/24 03:08:49;;;;;;;;;;;;;;;10.66;80.23;99804.13;7384785;19;19930;-86
2022/11/24 03:11:16;;;;;;;;;;;;;;;10.65;79.82;99815.63;7393956;19;19923;-85
2022/11/24 03:13:44;;;;;;;;;;;;;;;10.63;79.91;99807.91;7391791;19;20396;-86
2022/11/24 03:16:11;;;;;;;;;;;;;;;10.63;80.21;99810.53;7391836;19;21187;-87
2022/11/24 03:18:38;;;;;;;;;;;;;;;10.62;80.06;99808.91;7383886;19;19922;-86
2022/11/24 03:21:06;;;;;;;;;;;;;;;10.62;80.23;99808.91;7390883;19;19928;-85
2022/11/24 03:23:33;;;;;;;;;;;;;;;10.63;81.46;99818.44;7392870;19;19921;-87
2022/11/24 03:26:03;;;;;;;;;;;;;;;10.62;80.65;99816.78;7391249;19;19919;-86
2022/11/24 03:28:33;;;;;;;;;;;;;;;10.60;80.95;99825.88;7390932;19;20290;-86
2022/11/24 03:31:01;;;;;;;;;;;;;;;10.59;81.09;99832.13;7389396;19;20389;-85
2022/11/24 03:33:28;;;;;;;;;;;;;;;10.58;80.75;99828.66;7386863;19;19927;-87
2022/11/24 03:35:55;;;;;;;;;;;;;;;10.57;80.88;99840.19;7389999;19;19919;-86
2022/11/24 03:48:19;;;;;;;;;;;;;;;10.39;80.95;99852.84;7393938;19;19907;-86
2022/11/24 03:50:50;;;;;;;;;;;;;;;10.46;82.20;99848.50;7392737;19;19990;-86
2022/11/24 03:53:17;;;;;;;;;;;;;;;10.46;81.78;99858.22;7391042;19;19921;-86
2022/11/24 03:55:44;;;;;;;;;;;;;;;10.47;81.49;99862.44;7385971;19;19926;-85
2022/11/24 03:58:11;;;;;;;;;;;;;;;10.47;80.61;99865.91;7383247;19;19911;-86
2022/11/24 04:00:38;;;;;;;;;;;;;;;10.46;81.20;99861.66;7388098;19;21248;-85
2022/11/24 04:03:05;;;;;;;;;;;;;;;10.39;80.39;99873.03;7390218;19;20442;-86
2022/11/24 04:05:35;;;;;;;;;;;;;;;10.38;81.00;99860.88;7386535;19;21254;-86
2022/11/24 04:08:04;;;;;;;;;;;;;;;10.33;80.69;99861.41;7385942;19;19914;-86
2022/11/24 04:10:32;;;;;;;;;;;;;;;10.35;81.03;99874.41;7387279;19;19923;-86
2022/11/24 04:16:17;;;;;;;;;;;;;;;10.36;81.00;99886.56;7388327;19;19917;-86
2022/11/24 04:18:45;;;;;;;;;;;;;;;10.34;80.75;99897.22;7383279;19;19919;-86
2022/11/24 04:21:12;;;;;;;;;;;;;;;10.36;81.24;99895.25;7388183;19;19927;-86
2022/11/24 04:23:39;;;;;;;;;;;;;;;10.38;81.37;99898.50;7387522;19;19915;-85
2022/11/24 04:26:06;;;;;;;;;;;;;;;10.39;80.69;99908.03;7390406;19;19918;-86
2022/11/24 04:28:34;;;;;;;;;;;;;;;10.39;80.65;99902.78;7391528;19;20214;-85
2022/11/24 04:31:07;;;;;;;;;;;;;;;10.41;81.21;99916.59;7392404;19;20264;-86
2022/11/24 04:33:34;;;;;;;;;;;;;;;10.42;81.30;99912.13;7391536;19;19922;-85
2022/11/24 04:36:01;;;;;;;;;;;;;;;10.39;80.61;99905.41;7392334;19;20101;-85
2022/11/24 04:38:28;;;;;;;;;;;;;;;10.39;81.07;99907.22;7392022;19;19922;-87
2022/11/24 04:41:15;;;;;;;;;;;;;;;10.38;81.10;99909.03;7391565;19;19922;-86
2022/11/24 04:43:42;;;;;;;;;;;;;;;10.39;80.62;99917.75;7392643;19;19927;-86
2022/11/24 04:46:10;;;;;;;;;;;;;;;10.38;81.16;99916.94;7389624;19;19911;-86
2022/11/24 04:48:37;;;;;;;;;;;;;;;10.38;81.80;99922.19;7392623;19;20459;-85
2022/11/24 04:51:05;;;;;;;;;;;;;;;10.40;81.14;99916.75;7392026;19;19923;-86
2022/11/24 04:53:33;;;;;;;;;;;;;;;10.41;81.56;99913.16;7394463;19;20353;-86
2022/11/24 04:56:07;;;;;;;;;;;;;;;10.39;81.24;99921.19;7386995;19;19956;-84
2022/11/24 04:58:34;;;;;;;;;;;;;;;10.40;81.31;99927.28;7389891;19;19923;-86
2022/11/24 05:01:05;;;;;;;;;;;;;;;10.41;81.23;99928.91;7386637;19;19923;-86
2022/11/24 05:03:32;;;;;;;;;;;;;;;10.42;81.22;99936.63;7391110;19;19915;-86
2022/11/24 05:06:01;;;;;;;;;;;;;;;10.40;80.48;99940.44;7389600;19;19998;-85
2022/11/24 05:08:28;;;;;;;;;;;;;;;10.42;81.74;99946.31;7390399;19;19923;-84
2022/11/24 05:10:55;;;;;;;;;;;;;;;10.42;81.10;99946.31;7390438;19;19943;-84
2022/11/24 05:13:25;;;;;;;;;;;;;;;10.42;81.54;99952.38;7392948;19;19938;-86
2022/11/24 05:15:52;;;;;;;;;;;;;;;10.43;81.57;99947.97;7392510;19;20584;-86
2022/11/24 05:18:19;;;;;;;;;;;;;;;10.43;82.06;99940.88;7388451;19;19913;-85
2022/11/24 05:20:56;;;;;;;;;;;;;;;10.48;82.06;99946.44;7390329;19;19944;-85
2022/11/24 05:23:24;;;;;;;;;;;;;;;10.47;81.94;99957.13;7386723;19;20301;-86
2022/11/24 05:25:51;;;;;;;;;;;;;;;10.46;82.30;99958.16;7385994;19;19922;-86
2022/11/24 05:28:18;;;;;;;;;;;;;;;10.47;82.49;99957.13;7385785;19;19915;-85
2022/11/24 05:30:45;;;;;;;;;;;;;;;10.49;82.33;99960.41;7386582;19;19932;-85
2022/11/24 05:35:46;;;;;;;;;;;;;;;10.52;81.92;99970.56;7388546;19;20468;-85
2022/11/24 05:38:15;;;;;;;;;;;;;;;10.54;81.81;99964.16;7389343;19;19915;-85
2022/11/24 05:40:48;;;;;;;;;;;;;;;10.54;81.83;99979.13;7382697;19;19915;-86
2022/11/24 05:43:15;;;;;;;;;;;;;;;10.56;82.23;99985.03;7384267;19;20395;-87
2022/11/24 05:45:44;;;;;;;;;;;;;;;10.56;81.71;99980.59;7385132;19;19939;-85
2022/11/24 05:48:12;;;;;;;;;;;;;;;10.59;81.25;99988.13;7386052;19;19910;-85
2022/11/24 05:50:39;;;;;;;;;;;;;;;10.61;81.33;99993.22;7384089;19;20320;-87
2022/11/24 05:53:10;;;;;;;;;;;;;;;10.61;81.31;99999.31;7387022;19;20233;-85
2022/11/24 05:55:38;;;;;;;;;;;;;;;10.63;81.29;100001.75;7382478;19;19939;-85
2022/11/24 05:58:06;;;;;;;;;;;;;;;10.62;81.32;100011.44;7390141;19;19947;-85
2022/11/24 06:03:47;;;;;;;;;;;;;;;10.67;80.62;100008.28;7390457;19;19922;-86
2022/11/24 06:06:14;;;;;;;;;;;;;;;10.67;81.23;100013.56;7392244;19;20240;-86
2022/11/24 06:08:41;;;;;;;;;;;;;;;10.68;81.18;100016.03;7387192;19;19921;-86
2022/11/24 06:16:48;;;;;;;;;;;;;;;10.72;80.08;100025.19;7394521;19;19943;-85
2022/11/24 06:19:16;;;;;;;;;;;;;;;10.73;80.13;100032.09;7392767;19;21504;-85
2022/11/24 06:21:43;;;;;;;;;;;;;;;10.71;79.55;100018.31;7391439;19;19919;-86
2022/11/24 06:24:10;;;;;;;;;;;;;;;10.70;79.95;100029.00;7397106;19;19925;-88
2022/11/24 06:29:47;;;;;;;;;;;;;;;10.70;80.18;100035.09;7393781;19;19919;-86
2022/11/24 06:32:17;;;;;;;;;;;;;;;10.74;81.00;100032.94;7394995;19;20231;-86
2022/11/24 06:34:44;;;;;;;;;;;;;;;10.75;81.07;100037.22;7392796;19;20436;-86
2022/11/24 06:37:11;;;;;;;;;;;;;;;10.70;79.76;100032.47;7393704;19;19915;-87
2022/11/24 06:39:38;;;;;;;;;;;;;;;10.69;79.79;100032.63;7393126;19;20393;-86
2022/11/24 06:42:05;;;;;;;;;;;;;;;10.68;80.07;100025.72;7394918;19;19923;-86
2022/11/24 06:44:32;;;;;;;;;;;;;;;10.70;81.43;100023.75;7393952;19;19925;-86
2022/11/24 06:47:00;;;;;;;;;;;;;;;10.67;81.15;100017.00;7392669;19;19919;-85
2022/11/24 06:49:27;;;;;;;;;;;;;;;10.68;80.51;100015.19;7394113;19;19931;-87
2022/11/24 06:55:13;;;;;;;;;;;;;;;10.66;80.36;100022.47;7394398;19;19899;-85
2022/11/24 06:57:40;;;;;;;;;;;;;;;10.65;81.52;100028.72;7394390;19;19940;-85
2022/11/24 07:00:07;;;;;;;;;;;;;;;10.65;81.49;100026.91;7391223;19;19919;-86
2022/11/24 07:02:37;;;;;;;;;;;;;;;10.64;81.78;100029.69;7391015;19;19919;-86
2022/11/24 07:05:11;;;;;;;;;;;;;;;10.64;81.62;100024.44;7392769;19;19978;-86
2022/11/24 07:10:48;;;;;;;;;;;;;;;10.62;82.32;100036.94;7390638;19;19942;-86
2022/11/24 07:13:15;;;;;;;;;;;;;;;10.59;81.78;100035.47;7391861;19;19982;-86
2022/11/24 07:15:42;;;;;;;;;;;;;;;10.60;81.71;100046.81;7389947;19;19927;-87
2022/11/24 07:18:10;;;;;;;;;;;;;;;10.58;81.65;100047.00;7390344;19;19938;-84
2022/11/24 07:20:37;;;;;;;;;;;;;;;10.58;81.38;100062.78;7386885;19;20339;-86
2022/11/24 07:23:05;;;;;;;;;;;;;;;10.59;80.71;100053.91;7388653;19;19923;-85
2022/11/24 07:25:35;;;;;;;;;;;;;;;10.60;80.82;100058.16;7388924;19;19927;-86
2022/11/24 07:28:03;;;;;;;;;;;;;;;10.62;81.15;100057.97;7390435;19;19923;-88
2022/11/24 07:30:30;;;;;;;;;;;;;;;10.66;81.56;100062.75;7389454;19;20633;-87
2022/11/24 07:32:58;;;;;;;;;;;;;;;10.68;81.01;100067.81;7392386;19;19923;-86
2022/11/24 07:35:26;;;;;;;;;;;;;;;10.72;81.81;100075.19;7390099;19;19922;-85
2022/11/24 07:37:54;;;;;;;;;;;;;;;10.78;81.99;100078.13;7389806;19;19922;-87
2022/11/24 07:40:22;;;;;;;;;;;;;;;10.81;80.82;100078.63;7386367;19;19927;-85
2022/11/24 07:42:50;;;;;;;;;;;;;;;10.86;80.94;100075.47;7387668;19;21000;-86
2022/11/24 07:45:17;;;;;;;;;;;;;;;10.91;81.44;100075.78;7388276;19;20782;-86
2022/11/24 07:47:44;;;;;;;;;;;;;;;10.93;81.07;100082.47;7390572;19;19922;-86
2022/11/24 07:50:16;;;;;;;;;;;;;;;10.97;80.75;100081.13;7390503;19;19939;-87
2022/11/24 07:52:43;;;;;;;;;;;;;;;11.00;80.72;100086.06;7390927;19;19947;-85
2022/11/24 07:55:11;;;;;;;;;;;;;;;11.04;80.25;100084.72;7389357;19;19919;-85
2022/11/24 07:57:38;;;;;;;;;;;;;;;11.07;79.98;100080.94;7388679;19;19937;-86
2022/11/24 08:00:06;;;;;;;;;;;;;;;11.08;80.15;100085.19;7387108;19;19919;-84
2022/11/24 08:02:33;;;;;;;;;;;;;;;11.13;81.12;100085.47;7388479;19;20334;-86
2022/11/24 08:05:00;;;;;;;;;;;;;;;11.14;80.92;100080.03;7388118;19;19919;-86
2022/11/24 08:07:27;;;;;;;;;;;;;;;11.18;80.12;100095.47;7388430;19;19954;-86
2022/11/24 08:09:55;;;;;;;;;;;;;;;11.21;80.18;100093.34;7389546;19;19923;-86
2022/11/24 08:12:22;;;;;;;;;;;;;;;11.19;80.16;100074.25;7390739;19;19933;-85
2022/11/24 08:14:50;;;;;;;;;;;;;;;11.19;79.86;100082.16;7388677;19;19937;-88
2022/11/24 08:17:17;;;;;;;;;;;;;;;11.18;79.90;100080.50;7386848;19;19923;-86
2022/11/24 08:19:44;;;;;;;;;;;;;;;11.19;80.05;100073.44;7384418;19;20029;-87
2022/11/24 08:22:11;;;;;;;;;;;;;;;11.20;80.90;100069.81;7387486;19;20002;-85
2022/11/24 08:24:45;;;;;;;;;;;;;;;11.18;80.14;100075.25;7384765;19;19919;-86
2022/11/24 08:27:12;;;;;;;;;;;;;;;11.19;80.56;100071.63;7388047;19;20254;-86
2022/11/24 08:29:40;;;;;;;;;;;;;;;11.20;80.58;100080.34;7390005;19;19926;-89
2022/11/24 08:32:08;;;;;;;;;;;;;;;11.22;80.99;100081.81;7393823;19;19967;-85
2022/11/24 08:34:39;;;;;;;;;;;;;;;11.21;81.53;100080.19;7388493;19;19922;-87
2022/11/24 08:37:06;;;;;;;;;;;;;;;11.20;80.79;100083.81;7389274;19;19940;-85
2022/11/24 08:39:33;;;;;;;;;;;;;;;11.19;80.73;100079.53;7388051;19;19926;-85
2022/11/24 08:42:00;;;;;;;;;;;;;;;11.18;80.89;100080.50;7387365;19;19955;-86
2022/11/24 08:47:50;;;;;;;;;;;;;;;11.17;81.00;100073.63;7389175;19;19931;-87
2022/11/24 08:50:17;;;;;;;;;;;;;;;11.21;81.50;100080.19;7385515;19;19914;-85
2022/11/24 08:52:44;;;;;;;;;;;;;;;11.26;81.58;100085.72;7384708;19;19982;-86
2022/11/24 08:55:11;;;;;;;;;;;;;;;11.33;81.83;100085.84;7384244;19;19923;-87
2022/11/24 08:57:38;;;;;;;;;;;;;;;11.36;82.13;100085.50;7382026;19;19931;-85
2022/11/24 09:00:06;;;;;;;;;;;;;;;11.41;82.61;100085.78;7382021;19;19923;-86
2022/11/24 09:02:33;;;;;;;;;;;;;;;11.44;83.20;100080.97;7382391;19;19919;-85
2022/11/24 09:05:01;;;;;;;;;;;;;;;11.45;82.53;100085.25;7383362;19;19951;-86
2022/11/24 09:07:29;;;;;;;;;;;;;;;11.48;82.34;100084.88;7384202;19;19950;-85
2022/11/24 09:09:56;;;;;;;;;;;;;;;11.50;82.36;100088.19;7383726;19;19923;-86
2022/11/24 09:12:23;;;;;;;;;;;;;;;11.52;82.29;100077.47;7387816;19;19923;-85
2022/11/24 09:14:50;;;;;;;;;;;;;;;11.57;82.43;100081.22;7386151;19;19918;-87
2022/11/24 09:17:20;;;;;;;;;;;;;;;11.62;81.80;100079.84;7382922;19;19933;-84
2022/11/24 09:19:47;;;;;;;;;;;;;;;11.65;81.87;100085.59;7379246;19;19983;-85
2022/11/24 09:22:14;;;;;;;;;;;;;;;11.70;82.29;100085.03;7381866;19;19939;-86
2022/11/24 09:24:41;;;;;;;;;;;;;;;11.71;82.39;100074.34;7386777;19;19919;-85
2022/11/24 09:27:08;;;;;;;;;;;;;;;11.74;82.48;100076.63;7380800;19;19990;-86
2022/11/24 09:29:36;;;;;;;;;;;;;;;11.80;82.28;100077.72;7386117;19;19930;-87
2022/11/24 09:32:03;;;;;;;;;;;;;;;11.83;82.22;100074.75;7387938;19;19922;-86
2022/11/24 09:34:33;;;;;;;;;;;;;;;11.86;81.63;100075.22;7390544;19;19914;-85
2022/11/24 09:37:00;;;;;;;;;;;;;;;11.88;81.84;100078.50;7390032;19;19955;-87
2022/11/24 09:39:28;;;;;;;;;;;;;;;11.91;81.28;100078.13;7390199;19;19915;-86
2022/11/24 09:41:58;;;;;;;;;;;;;;;11.92;81.65;100079.78;7390060;19;19918;-86
2022/11/24 09:44:28;;;;;;;;;;;;;;;11.98;81.77;100070.31;7392363;19;19911;-87
2022/11/24 09:50:17;;;;;;;;;;;;;;;12.01;81.78;100075.22;7394166;19;19907;-85
2022/11/24 09:52:48;;;;;;;;;;;;;;;12.04;81.99;100079.31;7393303;19;19923;-87
2022/11/24 09:55:22;;;;;;;;;;;;;;;12.06;81.85;100057.03;7391509;19;20358;-86
2022/11/24 09:57:53;;;;;;;;;;;;;;;12.09;82.21;100061.94;7391646;19;19947;-87
2022/11/24 10:00:21;;;;;;;;;;;;;;;12.11;82.35;100057.31;7392186;19;19919;-87
2022/11/24 10:02:48;;;;;;;;;;;;;;;12.15;82.07;100060.41;7393972;19;19922;-85
2022/11/24 10:05:17;;;;;;;;;;;;;;;12.20;82.46;100063.31;7387937;19;19918;-86
2022/11/24 10:07:53;;;;;;;;;;;;;;;12.22;82.45;100064.78;7392714;19;20256;-86
2022/11/24 10:10:24;;;;;;;;;;;;;;;12.28;82.81;100068.50;7393258;19;19997;-86
2022/11/24 10:12:54;;;;;;;;;;;;;;;12.32;82.88;100060.03;7396249;19;19915;-87
2022/11/24 10:18:41;;;;;;;;;;;;;;;12.49;83.03;100058.03;7392243;19;20585;-86
2022/11/24 10:21:08;;;;;;;;;;;;;;;12.55;83.37;100070.47;7392462;19;19931;-86
2022/11/24 10:23:40;;;;;;;;;;;;;;;12.61;83.50;100059.19;7393981;19;19914;-85
2022/11/24 10:26:10;;;;;;;;;;;;;;;12.66;83.86;100048.06;7392668;19;19923;-85
2022/11/24 10:28:43;;;;;;;;;;;;;;;12.69;84.20;100045.06;7393317;19;19943;-86
2022/11/24 10:31:16;;;;;;;;;;;;;;;12.69;83.88;100047.72;7393673;19;19970;-86
2022/11/24 10:33:43;;;;;;;;;;;;;;;12.70;84.68;100050.13;7392608;19;20414;-88
2022/11/24 10:36:15;;;;;;;;;;;;;;;12.72;85.21;100042.88;7390834;19;20002;-86
2022/11/24 10:38:46;;;;;;;;;;;;;;;12.75;85.48;100046.94;7394940;19;19971;-87
2022/11/24 10:44:45;;;;;;;;;;;;;;;12.85;85.96;100036.91;7395318;19;20637;-87
2022/11/24 10:47:15;;;;;;;;;;;;;;;12.92;86.37;100031.69;7396370;19;19938;-86
2022/11/24 10:49:45;;;;;;;;;;;;;;;12.98;86.68;100030.94;7391620;19;19923;-85
2022/11/24 10:52:13;;;;;;;;;;;;;;;13.04;86.77;100020.47;7390774;19;19922;-86
2022/11/24 10:54:44;;;;;;;;;;;;;;;13.09;86.88;100018.06;7391680;19;19967;-85
2022/11/24 10:57:25;;;;;;;;;;;;;;;13.12;86.68;100012.44;7391466;19;20334;-87
2022/11/24 10:59:52;;;;;;;;;;;;;;;13.17;86.72;100001.28;7394217;19;19919;-86
2022/11/24 11:02:25;;;;;;;;;;;;;;;13.20;87.15;100011.50;7400639;19;19958;-87
2022/11/24 11:04:53;;;;;;;;;;;;;;;13.21;86.94;99989.31;7387496;19;20340;-86
2022/11/24 11:07:23;;;;;;;;;;;;;;;13.23;86.85;99995.25;7392035;19;19927;-86
2022/11/24 11:10:11;;;;;;;;;;;;;;;13.25;86.50;99986.16;7394155;19;19923;-86
2022/11/24 11:12:42;;;;;;;;;;;;;;;13.28;86.68;99977.81;7390189;19;19914;-86
2022/11/24 11:15:14;;;;;;;;;;;;;;;13.32;86.92;99970.31;7389060;19;19919;-87
2022/11/24 11:17:53;;;;;;;;;;;;;;;13.36;86.70;99966.28;7391883;19;21614;-88
2022/11/24 11:20:26;;;;;;;;;;;;;;;13.40;86.35;99959.63;7389170;19;19915;-87
2022/11/24 11:22:55;;;;;;;;;;;;;;;13.46;86.05;99956.19;7391688;19;19919;-86
2022/11/24 11:25:26;;;;;;;;;;;;;;;13.54;85.75;99949.94;7392032;19;19946;-86
2022/11/24 11:28:10;;;;;;;;;;;;;;;13.60;85.06;99957.13;7392398;19;20349;-85
2022/11/24 11:30:55;;;;;;;;;;;;;;;13.69;84.66;99953.28;7388619;19;19923;-86
2022/11/24 11:33:52;;;;;;;;;;;;;;;13.76;84.34;99948.88;7393671;19;19927;-88
2022/11/24 11:36:31;;;;;;;;;;;;;;;13.83;83.54;99941.78;7392024;19;19994;-85
2022/11/24 11:38:59;;;;;;;;;;;;;;;13.86;83.64;99925.53;7390646;19;19914;-88
2022/11/24 11:41:30;;;;;;;;;;;;;;;13.87;82.99;99918.41;7392002;19;19927;-87
2022/11/24 11:44:06;;;;;;;;;;;;;;;13.90;83.13;99897.69;7389013;19;20245;-87
2022/11/24 11:46:38;;;;;;;;;;;;;;;13.91;83.28;99894.03;7388392;19;19923;-85
2022/11/24 11:49:12;;;;;;;;;;;;;;;13.90;83.41;99904.78;7388610;19;19922;-86
2022/11/24 11:51:51;;;;;;;;;;;;;;;13.94;83.28;99908.66;7390574;19;19935;-87
2022/11/24 11:54:35;;;;;;;;;;;;;;;14.00;83.31;99898.13;7387817;19;19924;-86
2022/11/24 11:57:22;;;;;;;;;;;;;;;14.06;83.36;99897.34;7388575;19;20526;-86
2022/11/24 11:59:54;;;;;;;;;;;;;;;14.15;83.29;99897.97;7387810;19;20230;-87
2022/11/24 12:02:21;;;;;;;;;;;;;;;14.20;83.29;99897.38;7395205;19;19930;-85
2022/11/24 12:04:52;;;;;;;;;;;;;;;14.26;82.98;99894.75;7388211;19;19919;-85
2022/11/24 12:07:22;;;;;;;;;;;;;;;14.31;82.09;99902.09;7387648;19;19963;-86
2022/11/24 12:09:51;;;;;;;;;;;;;;;14.35;81.71;99892.72;7390410;19;19930;-85
2022/11/24 12:12:21;;;;;;;;;;;;;;;14.39;81.86;99888.69;7390058;19;19939;-86
2022/11/24 12:14:49;;;;;;;;;;;;;;;14.41;81.04;99874.25;7399382;19;20481;-86
2022/11/24 12:17:27;;;;;;;;;;;;;;;14.44;81.01;99873.03;7397119;19;20005;-88
2022/11/24 12:20:01;;;;;;;;;;;;;;;14.48;81.06;99868.94;7392455;19;19919;-86
2022/11/24 12:22:31;;;;;;;;;;;;;;;14.50;80.04;99872.22;7386218;19;20401;-84
2022/11/24 12:25:02;;;;;;;;;;;;;;;14.53;80.13;99866.50;7390354;19;19930;-85
2022/11/24 12:27:29;;;;;;;;;;;;;;;14.52;79.52;99864.91;7389903;19;19922;-85
2022/11/24 12:30:00;;;;;;;;;;;;;;;14.50;79.50;99859.81;7388193;19;19929;-85
2022/11/24 12:32:30;;;;;;;;;;;;;;;14.50;79.50;99857.16;7392563;19;19914;-85
2022/11/24 12:38:19;;;;;;;;;;;;;;;14.49;79.62;99847.56;7408228;19;19976;-87
2022/11/24 12:40:50;;;;;;;;;;;;;;;14.47;79.16;99851.47;7386765;19;19936;-87
2022/11/24 12:43:19;;;;;;;;;;;;;;;14.47;79.42;99846.16;7390994;19;20291;-85
2022/11/24 12:45:49;;;;;;;;;;;;;;;14.47;79.91;99843.53;7389334;19;19925;-86
2022/11/24 12:48:17;;;;;;;;;;;;;;;14.50;79.65;99838.63;7391474;19;19919;-85
2022/11/24 12:50:44;;;;;;;;;;;;;;;14.50;79.50;99830.69;7391253;19;19915;-87
2022/11/24 12:53:15;;;;;;;;;;;;;;;14.52;79.58;99825.19;7393109;19;19918;-88
2022/11/24 12:55:46;;;;;;;;;;;;;;;14.53;80.19;99819.69;7395999;19;20591;-86
2022/11/24 12:58:16;;;;;;;;;;;;;;;14.52;79.82;99819.91;7394140;19;19926;-86
2022/11/24 13:00:46;;;;;;;;;;;;;;;14.49;79.47;99815.00;7392597;19;19951;-86
2022/11/24 13:06:34;;;;;;;;;;;;;;;14.49;79.71;99810.50;7395721;19;19915;-86
2022/11/24 13:09:05;;;;;;;;;;;;;;;14.47;80.26;99809.91;7390007;19;19927;-85
2022/11/24 13:11:35;;;;;;;;;;;;;;;14.50;80.04;99806.84;7397862;19;19915;-86
2022/11/24 13:14:06;;;;;;;;;;;;;;;14.50;80.06;99795.44;7393782;19;19923;-86
2022/11/24 13:16:34;;;;;;;;;;;;;;;14.51;80.55;99791.78;7391811;19;19992;-87
2022/11/24 13:19:17;;;;;;;;;;;;;;;14.53;81.48;99790.56;7388556;19;19929;-88
2022/11/24 13:21:49;;;;;;;;;;;;;;;14.54;81.88;99800.13;7391634;19;19922;-86
2022/11/24 13:24:16;;;;;;;;;;;;;;;14.56;81.41;99786.69;7395510;19;19922;-87
2022/11/24 13:26:48;;;;;;;;;;;;;;;14.65;82.28;99780.16;7392784;19;19943;-86
2022/11/24 13:29:18;;;;;;;;;;;;;;;14.73;81.18;99760.63;7393046;19;20313;-85
2022/11/24 13:31:51;;;;;;;;;;;;;;;14.75;80.24;99762.03;7395219;19;19918;-87
2022/11/24 13:34:21;;;;;;;;;;;;;;;14.73;79.66;99761.41;7391234;19;19934;-86
2022/11/24 13:36:52;;;;;;;;;;;;;;;14.73;79.54;99769.34;7394097;19;19919;-85
2022/11/24 13:39:20;;;;;;;;;;;;;;;14.69;78.80;99762.84;7396146;19;19923;-86
2022/11/24 13:41:48;;;;;;;;;;;;;;;14.71;78.97;99752.88;7391275;19;20336;-85
2022/11/24 13:44:20;;;;;;;;;;;;;;;14.71;79.34;99757.34;7393608;19;19929;-86
2022/11/24 13:46:50;;;;;;;;;;;;;;;14.72;79.62;99751.03;7390236;19;19918;-86
2022/11/24 13:49:30;;;;;;;;;;;;;;;14.70;78.99;99755.72;7391281;19;20266;-86
2022/11/24 13:52:17;;;;;;;;;;;;;;;14.70;79.77;99753.06;7392373;19;19926;-87
2022/11/24 13:54:44;;;;;;;;;;;;;;;14.70;80.74;99742.47;7388953;19;19926;-86
2022/11/24 13:57:14;;;;;;;;;;;;;;;14.68;81.09;99740.03;7389137;19;19915;-86
2022/11/24 14:03:05;;;;;;;;;;;;;;;14.61;82.01;99727.84;7394416;19;19922;-85